Latest Weather Observations for Rhyll

IDV60801

Issued at 2:31 pm EST Monday 6 July 2015 (issued every 30 minutes, with the page automatically refreshed every 10 minutes)

About weather observations | Map of weather stations | Latest weather observations for VIC | Other Formats
Station Details ID: 086373 Name: RHYLL Lat: -38.46 Lon: 145.31 Height: 13.4 m
Data from the previous 72 hours. | See also: Recent months at Rhyll
Date/Time
EST
Temp
°C
App
Temp
°C
Dew
Point
Rel
Hum
%
Delta-T
°C
Wind Press
QNH
hPa
Press
MSL
hPa
Rain
since 9 am
mm
Dir
 
Spd
km/h
Gust
km/h
Spd
kts
Gust
kts
06/02:30pm 11.2 4.7 6.5 73 2.2 NNW 30 39 16 21 1014.1 1014.1 0.0
06/02:00pm 11.0 4.9 6.6 74 2.1 NNW 28 39 15 21 1014.2 1014.2 0.0
06/01:30pm 10.9 5.5 6.5 74 2.1 NNW 24 35 13 19 1014.5 1014.5 0.0
06/01:00pm 10.8 5.5 6.6 75 2.0 NNW 24 33 13 18 1014.6 1014.6 0.0
06/12:30pm 10.5 5.1 6.5 76 1.9 NNW 24 32 13 17 1015.0 1015.0 0.0
06/12:00pm 10.4 5.0 6.4 76 1.9 NNW 24 32 13 17 1015.4 1015.4 0.0
06/11:30am 10.1 5.0 6.1 76 1.9 NNW 22 35 12 19 1015.6 1015.6 0.0
06/11:00am 10.1 6.0 6.1 76 1.8 NNW 17 26 9 14 1015.8 1015.8 0.0
06/10:30am 10.1 5.5 6.3 77 1.8 NNW 20 33 11 18 1015.8 1015.8 0.0
06/10:00am 9.7 5.2 6.1 78 1.7 NNW 19 32 10 17 1015.7 1015.7 0.0
06/09:30am 9.5 4.0 6.0 79 1.6 NNW 24 35 13 19 1015.6 1015.6 0.0
06/09:00am 9.5 3.5 5.5 76 1.8 NNW 26 37 14 20 1015.5 1015.5 0.0
06/08:30am 9.3 3.0 5.9 79 1.6 NNW 28 39 15 21 1015.5 1015.5 0.0
06/08:00am 9.6 3.2 5.4 75 1.9 NNW 28 37 15 20 1015.2 1015.2 0.0
06/07:30am 9.6 2.5 5.6 76 1.8 NNW 32 41 17 22 1015.2 1015.2 0.0
06/07:00am 9.8 3.0 5.2 73 2.1 NNW 30 41 16 22 1015.0 1015.0 0.0
06/06:30am 9.9 3.6 5.5 74 2.0 NNW 28 37 15 20 1015.1 1015.1 0.0
06/06:00am 10.0 3.6 5.2 72 2.2 NNW 28 39 15 21 1015.0 1015.0 0.0
06/05:30am 10.1 2.9 5.1 71 2.3 NNW 32 44 17 24 1015.1 1015.1 0.0
06/05:00am 10.3 2.6 5.3 71 2.3 NNW 35 50 19 27 1014.9 1014.9 0.0
06/04:30am 10.5 2.8 5.5 71 2.3 NNW 35 50 19 27 1014.8 1014.8 0.0
06/04:00am 10.5 3.4 5.5 71 2.3 NNW 32 44 17 24 1015.0 1015.0 0.0
06/03:30am 10.5 3.4 5.5 71 2.3 NNW 32 43 17 23 1015.2 1015.2 0.0
06/03:00am 10.6 3.6 6.0 73 2.1 NNW 32 39 17 21 1015.4 1015.4 0.0
06/02:30am 10.5 3.4 5.7 72 2.2 NNW 32 39 17 21 1015.6 1015.6 0.0
06/02:00am 10.6 3.5 5.6 71 2.3 NNW 32 43 17 23 1015.8 1015.8 0.0
06/01:30am 10.5 3.3 5.7 72 2.2 NNW 33 43 18 23 1015.8 1015.8 0.0
06/01:00am 10.4 3.1 5.6 72 2.2 NNW 33 43 18 23 1016.0 1016.0 0.0
06/12:30am 10.4 3.4 5.8 73 2.1 NNW 32 43 17 23 1016.1 1016.1 0.0
06/12:00am 10.5 3.8 5.5 71 2.3 NNW 30 44 16 24 1016.2 1016.2 0.0
 
Date/Time
EST
Temp
°C
App
Temp
°C
Dew
Point
Rel
Hum
%
Delta-T
°C
Wind Press
QNH
hPa
Press
MSL
hPa
Rain
since 9 am
mm
Dir
 
Spd
km/h
Gust
km/h
Spd
kts
Gust
kts
05/11:30pm 10.5 3.4 5.7 72 2.2 NNW 32 39 17 21 1016.4 1016.4 0.0
05/11:00pm 10.6 3.3 5.6 71 2.3 NNW 33 44 18 24 1016.4 1016.4 0.0
05/10:30pm 10.7 3.7 5.9 72 2.2 NNW 32 41 17 22 1016.4 1016.4 0.0
05/10:00pm 10.8 4.6 6.2 73 2.1 NNW 28 35 15 19 1016.7 1016.7 0.0
05/09:30pm 10.8 4.6 6.2 73 2.1 NNW 28 35 15 19 1016.9 1016.9 0.0
05/09:00pm 11.0 4.9 6.4 73 2.2 NNW 28 37 15 20 1016.9 1016.9 0.0
05/08:30pm 11.1 4.4 5.8 70 2.5 NNW 30 39 16 21 1016.9 1016.9 0.0
05/08:00pm 11.2 3.6 5.7 69 2.5 NNW 35 43 19 23 1016.9 1016.9 0.0
05/07:30pm 11.4 3.8 5.9 69 2.6 NNW 35 46 19 25 1016.9 1016.9 0.0
05/07:00pm 11.1 4.6 6.3 72 2.2 N 30 39 16 21 1016.9 1016.9 0.0
05/06:30pm 11.4 4.5 6.3 71 2.4 N 32 41 17 22 1016.8 1016.8 0.0
05/06:00pm 11.6 5.1 6.3 70 2.5 N 30 37 16 20 1016.8 1016.8 0.0
05/05:30pm 11.9 4.8 6.4 69 2.6 NNW 33 43 18 23 1016.6 1016.6 0.0
05/05:00pm 12.1 5.7 6.8 70 2.5 NNW 30 41 16 22 1016.6 1016.6 0.0
05/04:30pm 12.7 5.3 6.7 67 2.9 NNW 35 44 19 24 1016.4 1016.4 0.0
05/04:00pm 12.9 7.7 7.1 68 2.8 NNW 24 35 13 19 1016.6 1016.6 0.0
05/03:30pm 13.1 7.2 7.3 68 2.8 NNW 28 35 15 19 1016.4 1016.4 0.0
05/03:00pm 13.1 7.4 6.9 66 3.0 N 26 32 14 17 1016.6 1016.6 0.0
05/02:30pm 12.9 8.0 7.1 68 2.8 NNW 22 28 12 15 1016.9 1016.9 0.0
05/02:00pm 13.4 9.1 8.0 70 2.7 NNW 20 26 11 14 1017.1 1017.1 0.0
05/01:30pm 13.1 7.9 7.3 68 2.8 NNW 24 35 13 19 1017.3 1017.3 0.0
05/01:00pm 13.1 8.6 6.9 66 3.0 NNW 20 28 11 15 1017.7 1017.7 0.0
05/12:30pm 12.9 8.4 6.9 67 2.9 NNW 20 28 11 15 1018.0 1018.0 0.0
05/12:00pm 12.6 7.7 6.9 68 2.7 NNW 22 32 12 17 1018.4 1018.4 0.0
05/11:30am 12.1 7.6 6.8 70 2.5 NNW 20 33 11 18 1018.8 1018.8 0.0
05/11:00am 11.4 5.7 6.5 72 2.3 NNW 26 37 14 20 1019.3 1019.3 0.0
05/10:30am 10.9 4.3 6.1 72 2.2 NNW 30 39 16 21 1019.4 1019.4 0.0
05/10:00am 10.7 4.1 5.9 72 2.2 NNW 30 41 16 22 1019.4 1019.4 0.0
05/09:30am 10.5 4.3 6.1 74 2.0 NNW 28 39 15 21 1019.4 1019.4 0.0
05/09:00am 10.0 3.3 5.8 75 1.9 NNW 30 37 16 20 1019.3 1019.3 0.2
05/08:30am 9.6 3.3 5.6 76 1.8 NNW 28 35 15 19 1019.3 1019.3 0.2
05/08:00am 9.6 2.6 5.8 77 1.7 NNW 32 39 17 21 1019.2 1019.2 0.2
05/07:30am 9.7 2.7 5.9 77 1.7 NNW 32 41 17 22 1019.1 1019.1 0.2
05/07:00am 9.7 3.8 5.9 77 1.7 NNW 26 33 14 18 1019.1 1019.1 0.2
05/06:30am 9.6 4.1 5.8 77 1.7 NNW 24 32 13 17 1019.1 1019.1 0.2
05/06:00am 9.9 4.4 5.9 76 1.8 NNW 24 33 13 18 1019.1 1019.1 0.2
05/05:30am 9.9 4.4 5.9 76 1.8 NNW 24 35 13 19 1019.0 1019.0 0.2
05/05:00am 10.0 4.2 6.2 77 1.8 NNW 26 33 14 18 1018.9 1018.9 0.2
05/04:30am 10.0 3.8 6.2 77 1.8 NNW 28 37 15 20 1019.0 1019.0 0.2
05/04:00am 9.8 2.8 6.2 78 1.7 NNW 32 39 17 21 1019.1 1019.1 0.2
05/03:30am 9.8 2.7 6.3 79 1.6 NNW 33 43 18 23 1019.2 1019.2 0.2
05/03:00am 9.9 2.8 6.6 80 1.5 NNW 33 41 18 22 1019.4 1019.4 0.2
05/02:30am 10.1 3.9 6.3 77 1.8 NNW 28 37 15 20 1019.6 1019.6 0.2
05/02:00am 10.4 3.9 6.7 78 1.7 NNW 30 37 16 20 1019.7 1019.7 0.2
05/01:30am 10.4 3.9 6.5 77 1.8 NNW 30 35 16 19 1019.8 1019.8 0.2
05/01:00am 10.4 4.4 6.9 79 1.6 NNW 28 37 15 20 1019.9 1019.9 0.2
05/12:30am 10.3 4.2 6.8 79 1.6 NNW 28 35 15 19 1020.1 1020.1 0.2
05/12:00am 10.6 6.1 7.1 79 1.7 NNW 20 30 11 16 1020.2 1020.2 0.2
 
Date/Time
EST
Temp
°C
App
Temp
°C
Dew
Point
Rel
Hum
%
Delta-T
°C
Wind Press
QNH
hPa
Press
MSL
hPa
Rain
since 9 am
mm
Dir
 
Spd
km/h
Gust
km/h
Spd
kts
Gust
kts
04/11:30pm 10.5 5.6 7.0 79 1.7 NNW 22 32 12 17 1020.3 1020.3 0.2
04/11:00pm 10.3 5.9 7.2 81 1.5 NNW 20 30 11 16 1020.4 1020.4 0.2
04/10:30pm 10.1 5.3 7.2 82 1.4 NNW 22 30 12 16 1020.4 1020.4 0.2
04/10:00pm 9.5 5.0 7.1 85 1.1 NNW 20 28 11 15 1020.7 1020.7 0.2
04/09:30pm 9.7 4.4 7.0 83 1.3 NNW 24 33 13 18 1020.8 1020.8 0.2
04/09:00pm 9.7 4.8 7.1 84 1.2 NNW 22 32 12 17 1020.7 1020.7 0.2
04/08:30pm 9.7 4.9 7.5 86 1.0 NNW 22 30 12 16 1021.0 1021.0 0.2
04/08:00pm 9.4 4.2 7.2 86 1.0 NNW 24 32 13 17 1021.0 1021.0 0.2
04/07:30pm 9.5 4.3 7.1 85 1.1 NNW 24 33 13 18 1021.0 1021.0 0.2
04/07:00pm 9.3 4.4 7.1 86 1.0 NNW 22 32 12 17 1020.8 1020.8 0.2
04/06:30pm 9.4 4.6 7.2 86 1.0 NNW 22 33 12 18 1020.8 1020.8 0.2
04/06:00pm 9.6 4.8 7.4 86 1.0 NNW 22 32 12 17 1020.6 1020.6 0.2
04/05:30pm 9.6 4.4 7.4 86 1.0 NNW 24 35 13 19 1020.4 1020.4 0.2
04/05:00pm 9.4 3.9 7.5 88 0.9 NNW 26 35 14 19 1020.3 1020.3 0.2
04/04:30pm 9.7 4.3 7.8 88 0.9 NNW 26 35 14 19 1020.4 1020.4 0.2
04/04:00pm 9.9 4.8 7.7 86 1.0 NNW 24 33 13 18 1020.3 1020.3 0.2
04/03:30pm 10.1 5.0 7.7 85 1.2 NNW 24 35 13 19 1020.3 1020.3 0.2
04/03:00pm 10.1 5.5 8.0 87 1.0 NNW 22 35 12 19 1020.2 1020.2 0.2
04/02:30pm 10.3 6.2 7.9 85 1.2 NNW 19 30 10 16 1020.0 1020.0 0.2
04/02:00pm 10.3 5.2 7.7 84 1.2 NNW 24 35 13 19 1020.1 1020.1 0.2
04/01:30pm 10.3 5.7 8.1 86 1.1 NNW 22 32 12 17 1020.2 1020.2 0.2
04/01:00pm 10.1 5.4 7.9 86 1.1 NNW 22 33 12 18 1020.5 1020.5 0.2
04/12:30pm 9.7 4.9 7.3 85 1.1 NNW 22 35 12 19 1020.7 1020.7 0.2
04/12:00pm 9.3 4.1 7.3 87 0.9 NNW 24 32 13 17 1020.9 1020.9 0.2
04/11:30am 9.3 4.1 7.1 86 1.0 NNW 24 33 13 18 1021.4 1021.4 0.2
04/11:00am 9.1 4.5 6.7 85 1.1 NNW 20 32 11 17 1021.7 1021.7 0.2
04/10:30am 8.6 2.8 6.4 86 1.0 NNW 26 33 14 18 1021.8 1021.8 0.2
04/10:00am 8.4 2.7 6.5 88 0.9 NNW 26 37 14 20 1021.7 1021.7 0.2
04/09:30am 8.2 3.3 6.8 91 0.6 NNW 22 30 12 16 1021.6 1021.6 0.2
04/09:00am 8.5 4.0 6.3 86 1.0 NNW 19 28 10 15 1021.4 1021.4 1.4
04/08:30am 8.1 3.0 5.9 86 1.0 NNW 22 33 12 18 1021.4 1021.4 0.8
04/08:00am 9.1 3.9 5.3 77 1.7 NNW 22 30 12 16 1021.1 1021.1 0.0
04/07:30am 8.9 3.2 5.1 77 1.7 NNW 24 32 13 17 1021.0 1021.0 0.0
04/07:00am 9.0 3.4 5.2 77 1.7 NNW 24 35 13 19 1021.0 1021.0 0.0
04/06:30am 8.8 2.2 4.2 73 2.0 NNW 28 39 15 21 1021.0 1021.0 0.0
04/06:00am 9.2 3.4 4.6 73 2.0 NNW 24 33 13 18 1021.0 1021.0 0.0
04/05:30am 9.1 3.8 4.9 75 1.9 NNW 22 32 12 17 1021.1 1021.1 0.0
04/05:00am 9.4 3.2 4.4 71 2.2 NNW 26 35 14 19 1020.9 1020.9 0.0
04/04:30am 9.3 3.2 4.7 73 2.0 NNW 26 35 14 19 1021.0 1021.0 0.0
04/04:00am 9.3 4.0 4.9 74 2.0 NNW 22 35 12 19 1021.3 1021.3 0.0
04/03:30am 9.3 3.2 4.7 73 2.0 NNW 26 32 14 17 1021.5 1021.5 0.0
04/03:00am 9.4 4.1 5.2 75 1.9 NNW 22 32 12 17 1021.9 1021.9 0.0
04/02:30am 9.3 4.0 5.1 75 1.9 NNW 22 33 12 18 1022.0 1022.0 0.0
04/02:00am 9.5 5.1 4.5 71 2.2 NW 17 28 9 15 1022.4 1022.4 0.0
04/01:30am 9.5 4.5 4.7 72 2.1 NNW 20 28 11 15 1022.4 1022.4 0.0
04/01:00am 9.4 5.3 4.2 70 2.3 NNW 15 24 8 13 1022.7 1022.7 0.0
04/12:30am 9.4 4.6 4.6 72 2.1 NNW 19 30 10 16 1023.1 1023.1 0.0
04/12:00am 9.4 4.1 4.8 73 2.0 NNW 22 32 12 17 1023.3 1023.3 0.0
 
Date/Time
EST
Temp
°C
App
Temp
°C
Dew
Point
Rel
Hum
%
Delta-T
°C
Wind Press
QNH
hPa
Press
MSL
hPa
Rain
since 9 am
mm
Dir
 
Spd
km/h
Gust
km/h
Spd
kts
Gust
kts
03/11:30pm 9.6 4.1 4.2 69 2.4 NNW 22 30 12 16 1023.3 1023.3 0.0
03/11:00pm 9.6 4.7 4.2 69 2.4 NNW 19 28 10 15 1023.6 1023.6 0.0
03/10:30pm 9.6 5.3 3.4 65 2.7 NW 15 26 8 14 1023.7 1023.7 0.0
03/10:00pm 9.7 5.0 3.2 64 2.8 NNW 17 28 9 15 1023.9 1023.9 0.0
03/09:30pm 9.3 6.1 2.9 64 2.7 NW 9 19 5 10 1024.5 1024.5 0.0
03/09:00pm 9.3 5.3 2.6 63 2.8 NW 13 22 7 12 1024.6 1024.6 0.0
03/08:30pm 9.2 6.0 2.8 64 2.7 NW 9 19 5 10 1024.8 1024.8 0.0
03/08:00pm 9.2 5.8 2.1 61 3.0 NW 9 17 5 9 1024.9 1024.9 0.0
03/07:30pm 9.2 5.8 2.1 61 3.0 NW 9 15 5 8 1025.1 1025.1 0.0
03/07:00pm 9.3 6.3 1.9 60 3.1 WNW 7 17 4 9 1025.0 1025.0 0.0
03/06:30pm 9.2 5.7 1.4 58 3.2 WNW 9 20 5 11 1025.1 1025.1 0.0
03/06:00pm 9.4 6.5 2.7 63 2.8 WNW 7 17 4 9 1025.1 1025.1 0.0
03/05:30pm 9.7 6.8 2.8 62 3.0 NW 7 17 4 9 1025.0 1025.0 0.0
03/05:00pm 9.9 6.8 3.4 64 2.8 NW 9 17 5 9 1025.2 1025.2 0.0
03/04:30pm 10.0 7.3 2.8 61 3.1 WNW 6 15 3 8 1025.4 1025.4 0.0
03/04:00pm 10.1 7.3 3.4 63 2.9 WNW 7 15 4 8 1025.5 1025.5 0.0
03/03:30pm 10.4 6.8 3.2 61 3.1 W 11 24 6 13 1025.5 1025.5 0.0
03/03:00pm 10.5 7.8 3.8 63 2.9 W 7 13 4 7 1025.5 1025.5 0.0

Other Formats:

Comma delimited format used in spreadsheet applications
http://www.bom.gov.au/fwo/IDV60801/IDV60801.94892.axf

JavaScript Object Notation format (JSON) in row-major order
http://www.bom.gov.au/fwo/IDV60801/IDV60801.94892.json